Time;durP1;ratioP1;P1;durP2;ratioP2;P2;SDS_P1;SDS_P2;PMS_P1;PMS_P2;Temp;Humidity;BMP_temperature;BMP_pressure;BME280_temperature;BME280_humidity;BME280_pressure;Samples;Min_cycle;Max_cycle;Signal;HPM_P1;HPM_P2
2023/11/18 00:02:18;;;;;;;5.83;4.50;;;;;;;;;;5014299;28;20892;-84
2023/11/18 00:04:44;;;;;;;6.53;4.57;;;;;;;;;;5013910;28;20442;-84
2023/11/18 00:07:09;;;;;;;7.80;5.27;;;;;;;;;;5014112;28;20963;-83
2023/11/18 00:09:36;;;;;;;10.33;5.90;;;;;;;;;;4988509;28;20433;-83
2023/11/18 00:12:03;;;;;;;8.53;5.40;;;;;;;;;;5033899;28;20405;-83
2023/11/18 00:14:29;;;;;;;6.80;4.80;;;;;;;;;;5033480;28;20861;-84
2023/11/18 00:16:55;;;;;;;6.70;5.07;;;;;;;;;;5033752;28;20407;-84
2023/11/18 00:19:21;;;;;;;9.30;4.57;;;;;;;;;;5026345;28;20443;-83
2023/11/18 00:21:48;;;;;;;7.27;5.17;;;;;;;;;;5028844;28;20791;-84
2023/11/18 00:24:14;;;;;;;8.50;5.97;;;;;;;;;;5013929;28;20418;-83
2023/11/18 00:26:40;;;;;;;6.40;5.37;;;;;;;;;;5013862;28;20839;-83
2023/11/18 00:29:06;;;;;;;7.53;5.20;;;;;;;;;;5028345;28;20426;-84
2023/11/18 00:31:32;;;;;;;6.10;4.93;;;;;;;;;;5033368;28;20466;-83
2023/11/18 00:33:58;;;;;;;7.90;5.10;;;;;;;;;;5033486;28;20544;-83
2023/11/18 00:36:23;;;;;;;6.73;4.33;;;;;;;;;;5025273;28;20442;-84
2023/11/18 00:38:49;;;;;;;6.20;5.57;;;;;;;;;;5012367;28;21015;-84
2023/11/18 00:41:17;;;;;;;9.10;5.30;;;;;;;;;;5024337;28;20432;-84
2023/11/18 00:43:43;;;;;;;6.17;4.20;;;;;;;;;;5033007;28;20418;-84
2023/11/18 00:46:09;;;;;;;8.03;4.33;;;;;;;;;;5033313;28;20419;-84
2023/11/18 00:48:35;;;;;;;6.10;4.07;;;;;;;;;;5033339;28;20428;-84
2023/11/18 00:51:01;;;;;;;6.43;5.60;;;;;;;;;;5031703;28;20423;-84
2023/11/18 00:53:27;;;;;;;4.50;3.93;;;;;;;;;;5033113;28;20472;-84
2023/11/18 00:55:53;;;;;;;7.43;4.33;;;;;;;;;;5032925;28;20474;-83
2023/11/18 00:58:20;;;;;;;7.07;5.70;;;;;;;;;;5032890;28;20423;-84
2023/11/18 01:00:46;;;;;;;6.60;5.50;;;;;;;;;;5031740;28;20496;-84
2023/11/18 01:03:12;;;;;;;6.80;5.50;;;;;;;;;;5033079;28;20413;-85
2023/11/18 01:05:38;;;;;;;5.20;4.63;;;;;;;;;;5031044;28;20475;-84
2023/11/18 01:08:05;;;;;;;7.30;5.50;;;;;;;;;;5032956;28;20419;-84
2023/11/18 01:10:31;;;;;;;7.40;5.37;;;;;;;;;;5032870;28;20420;-83
2023/11/18 01:12:57;;;;;;;7.80;5.20;;;;;;;;;;5031517;28;20769;-84
2023/11/18 01:15:24;;;;;;;7.83;5.33;;;;;;;;;;5031556;28;20866;-83
2023/11/18 01:17:49;;;;;;;10.13;6.77;;;;;;;;;;5032614;28;20984;-83
2023/11/18 01:20:21;;;;;;;8.47;5.57;;;;;;;;;;5031031;28;20426;-81
2023/11/18 01:22:48;;;;;;;6.90;5.90;;;;;;;;;;5032749;28;20415;-81
2023/11/18 01:25:16;;;;;;;7.20;4.93;;;;;;;;;;5032165;28;20423;-81
2023/11/18 01:27:42;;;;;;;9.33;5.77;;;;;;;;;;5032835;28;20411;-80
2023/11/18 01:30:09;;;;;;;7.40;5.37;;;;;;;;;;5032624;28;20508;-80
2023/11/18 01:32:35;;;;;;;8.77;5.77;;;;;;;;;;5032801;28;20899;-80
2023/11/18 01:35:01;;;;;;;8.40;4.60;;;;;;;;;;5032193;28;20565;-80
2023/11/18 01:37:28;;;;;;;7.67;5.80;;;;;;;;;;5032732;28;20498;-80
2023/11/18 01:39:54;;;;;;;11.90;7.13;;;;;;;;;;5032736;28;20419;-80
2023/11/18 01:42:20;;;;;;;7.23;4.87;;;;;;;;;;5032720;28;20933;-81
2023/11/18 01:44:46;;;;;;;8.23;6.23;;;;;;;;;;5032808;28;20428;-83
2023/11/18 01:47:12;;;;;;;8.20;6.20;;;;;;;;;;5032806;28;20407;-82
2023/11/18 01:49:39;;;;;;;8.70;6.23;;;;;;;;;;5032491;28;20408;-82
2023/11/18 01:52:07;;;;;;;9.60;5.40;;;;;;;;;;5032796;28;20923;-82
2023/11/18 01:54:33;;;;;;;9.83;6.77;;;;;;;;;;5031375;28;20469;-82
2023/11/18 01:57:02;;;;;;;6.47;5.87;;;;;;;;;;5032723;28;20416;-82
2023/11/18 01:59:29;;;;;;;8.00;5.00;;;;;;;;;;5031408;28;20946;-82
2023/11/18 02:01:59;;;;;;;8.67;5.97;;;;;;;;;;5032743;28;20423;-82
2023/11/18 02:04:25;;;;;;;7.30;5.10;;;;;;;;;;5025323;28;20423;-82
2023/11/18 02:06:52;;;;;;;8.67;5.80;;;;;;;;;;5026678;28;20432;-82
2023/11/18 02:09:19;;;;;;;7.13;5.70;;;;;;;;;;5028373;28;20533;-82
2023/11/18 02:11:54;;;;;;;6.10;5.10;;;;;;;;;;5013720;28;20425;-82
2023/11/18 02:14:22;;;;;;;9.40;5.00;;;;;;;;;;5018291;28;21119;-82
2023/11/18 02:16:49;;;;;;;7.40;4.50;;;;;;;;;;5032585;28;20417;-82
2023/11/18 02:19:21;;;;;;;8.60;5.77;;;;;;;;;;5031388;28;20428;-82
2023/11/18 02:21:47;;;;;;;6.80;4.93;;;;;;;;;;5032095;28;20505;-81
2023/11/18 02:24:25;;;;;;;7.70;4.93;;;;;;;;;;5032499;28;20415;-82
2023/11/18 02:26:51;;;;;;;9.33;4.80;;;;;;;;;;5032586;28;20413;-81
2023/11/18 02:29:17;;;;;;;7.60;5.70;;;;;;;;;;5031140;28;21004;-81
2023/11/18 02:31:44;;;;;;;7.50;5.63;;;;;;;;;;5032247;28;20470;-80
2023/11/18 02:34:20;;;;;;;7.33;5.40;;;;;;;;;;5032024;28;20811;-80
2023/11/18 02:36:48;;;;;;;6.70;4.63;;;;;;;;;;5033206;28;20409;-81
2023/11/18 02:39:22;;;;;;;6.77;4.40;;;;;;;;;;5036019;28;20403;-81
2023/11/18 02:41:50;;;;;;;7.43;4.83;;;;;;;;;;5033024;28;20443;-81
2023/11/18 02:44:17;;;;;;;7.40;4.87;;;;;;;;;;5031243;28;20981;-81
2023/11/18 02:46:44;;;;;;;6.43;4.60;;;;;;;;;;5007483;28;20788;-81
2023/11/18 02:49:10;;;;;;;7.27;4.47;;;;;;;;;;5005466;28;21002;-81
2023/11/18 02:51:39;;;;;;;6.83;4.87;;;;;;;;;;5039731;28;20417;-81
2023/11/18 02:54:10;;;;;;;11.00;5.33;;;;;;;;;;5055584;28;20517;-81
2023/11/18 02:56:39;;;;;;;5.50;3.83;;;;;;;;;;5055598;28;20762;-81
2023/11/18 02:59:06;;;;;;;6.60;4.00;;;;;;;;;;5071042;28;20421;-81
2023/11/18 03:01:35;;;;;;;8.50;5.03;;;;;;;;;;5055554;28;20772;-82
2023/11/18 03:04:01;;;;;;;8.40;4.00;;;;;;;;;;5055213;28;20415;-81
2023/11/18 03:06:27;;;;;;;10.20;5.30;;;;;;;;;;5055366;28;20467;-81
2023/11/18 03:08:53;;;;;;;7.37;4.80;;;;;;;;;;5055409;28;20412;-81
2023/11/18 03:11:20;;;;;;;6.87;4.70;;;;;;;;;;5055398;28;20415;-81
2023/11/18 03:13:46;;;;;;;8.40;5.40;;;;;;;;;;5055179;28;20770;-80
2023/11/18 03:16:12;;;;;;;7.67;3.83;;;;;;;;;;5055256;28;20504;-81
2023/11/18 03:18:41;;;;;;;8.00;4.83;;;;;;;;;;5054928;28;20417;-81
2023/11/18 03:21:13;;;;;;;9.40;4.63;;;;;;;;;;5070247;28;20428;-81
2023/11/18 03:23:43;;;;;;;7.50;4.67;;;;;;;;;;5055019;28;20421;-80
2023/11/18 03:26:12;;;;;;;8.30;4.33;;;;;;;;;;5055133;28;20414;-81
2023/11/18 03:28:39;;;;;;;6.03;3.70;;;;;;;;;;5054981;28;20412;-81
2023/11/18 03:31:05;;;;;;;7.10;2.83;;;;;;;;;;5054766;28;20784;-80
2023/11/18 03:33:31;;;;;;;5.80;3.60;;;;;;;;;;5054949;28;20446;-80
2023/11/18 03:35:58;;;;;;;8.60;4.73;;;;;;;;;;5054476;28;20507;-81
2023/11/18 03:38:24;;;;;;;6.03;4.13;;;;;;;;;;5054819;28;20403;-80
2023/11/18 03:40:50;;;;;;;7.10;4.60;;;;;;;;;;5054870;28;20828;-80
2023/11/18 03:43:16;;;;;;;6.27;3.73;;;;;;;;;;5054753;28;20419;-81
2023/11/18 03:45:43;;;;;;;6.90;4.60;;;;;;;;;;5054745;28;20423;-80
2023/11/18 03:48:09;;;;;;;6.30;4.53;;;;;;;;;;5004206;28;20446;-80
2023/11/18 03:50:35;;;;;;;9.53;5.50;;;;;;;;;;5041348;28;20426;-80
2023/11/18 03:53:02;;;;;;;7.80;5.60;;;;;;;;;;5042939;28;20505;-80
2023/11/18 03:55:29;;;;;;;7.27;4.90;;;;;;;;;;5043681;28;20569;-79
2023/11/18 03:57:56;;;;;;;7.70;5.90;;;;;;;;;;5039703;28;20859;-80
2023/11/18 04:00:22;;;;;;;8.23;5.50;;;;;;;;;;5038075;28;20517;-80
2023/11/18 04:02:48;;;;;;;8.50;5.10;;;;;;;;;;5044805;28;20487;-79
2023/11/18 04:05:14;;;;;;;9.87;6.20;;;;;;;;;;5042460;28;20477;-80
2023/11/18 04:07:41;;;;;;;10.30;6.20;;;;;;;;;;5044429;28;20926;-80
2023/11/18 04:10:09;;;;;;;7.30;5.57;;;;;;;;;;5042890;28;20468;-80
2023/11/18 04:12:36;;;;;;;8.00;5.00;;;;;;;;;;5040173;28;20978;-80
2023/11/18 04:15:04;;;;;;;9.93;5.80;;;;;;;;;;5043336;28;20534;-80
2023/11/18 04:17:30;;;;;;;8.77;5.50;;;;;;;;;;5044455;28;20438;-80
2023/11/18 04:19:56;;;;;;;12.03;6.57;;;;;;;;;;5038863;28;20842;-81
2023/11/18 04:22:22;;;;;;;6.30;4.40;;;;;;;;;;5043412;28;20412;-81
2023/11/18 04:24:49;;;;;;;6.60;5.20;;;;;;;;;;5069339;28;20537;-82
2023/11/18 04:27:15;;;;;;;8.10;6.23;;;;;;;;;;5053936;28;20428;-81
2023/11/18 04:29:41;;;;;;;9.23;5.27;;;;;;;;;;5069281;28;20436;-81
2023/11/18 04:32:10;;;;;;;9.37;5.37;;;;;;;;;;5068976;28;20553;-81
2023/11/18 04:34:36;;;;;;;7.90;6.20;;;;;;;;;;5053259;28;20493;-81
2023/11/18 04:37:03;;;;;;;7.53;5.80;;;;;;;;;;5053675;28;20417;-81
2023/11/18 04:39:30;;;;;;;10.10;5.00;;;;;;;;;;5053220;28;20421;-81
2023/11/18 04:41:56;;;;;;;7.57;5.00;;;;;;;;;;5051953;28;20403;-81
2023/11/18 04:44:22;;;;;;;7.80;5.47;;;;;;;;;;5053468;28;20413;-81
2023/11/18 04:46:48;;;;;;;7.93;5.40;;;;;;;;;;5053660;28;20410;-81
2023/11/18 04:49:15;;;;;;;10.37;4.97;;;;;;;;;;4994538;28;20437;-81
2023/11/18 04:51:41;;;;;;;9.27;5.43;;;;;;;;;;5033618;28;20422;-80
2023/11/18 04:54:10;;;;;;;7.00;4.70;;;;;;;;;;5033499;28;20478;-80
2023/11/18 04:56:37;;;;;;;7.97;5.73;;;;;;;;;;5033508;28;20427;-79
2023/11/18 04:59:04;;;;;;;10.43;5.50;;;;;;;;;;5032250;28;20422;-80
2023/11/18 05:01:30;;;;;;;7.17;5.20;;;;;;;;;;5032555;28;20429;-79
2023/11/18 05:03:56;;;;;;;8.60;5.37;;;;;;;;;;5033143;28;20915;-79
2023/11/18 05:06:22;;;;;;;7.97;5.10;;;;;;;;;;5033389;28;20941;-80
2023/11/18 05:08:49;;;;;;;10.40;6.83;;;;;;;;;;5033345;28;20918;-80
2023/11/18 05:11:15;;;;;;;9.40;6.07;;;;;;;;;;5033404;28;20913;-80
2023/11/18 05:13:41;;;;;;;8.67;5.07;;;;;;;;;;5033361;28;20804;-80
2023/11/18 05:16:07;;;;;;;6.83;5.00;;;;;;;;;;5033415;28;20473;-80
2023/11/18 05:18:35;;;;;;;7.47;5.70;;;;;;;;;;5033265;28;20402;-80
2023/11/18 05:21:02;;;;;;;6.77;5.60;;;;;;;;;;5033384;28;20442;-79
2023/11/18 05:23:31;;;;;;;7.80;5.90;;;;;;;;;;5033221;28;20412;-80
2023/11/18 05:26:01;;;;;;;6.43;4.67;;;;;;;;;;5031936;28;20441;-80
2023/11/18 05:28:27;;;;;;;10.03;5.90;;;;;;;;;;5033119;28;20999;-79
2023/11/18 05:30:57;;;;;;;11.10;6.93;;;;;;;;;;5032903;28;20457;-80
2023/11/18 05:33:23;;;;;;;8.47;6.00;;;;;;;;;;5033190;28;20401;-80
2023/11/18 05:35:49;;;;;;;9.97;5.50;;;;;;;;;;5032636;28;20469;-80
2023/11/18 05:38:18;;;;;;;8.83;5.63;;;;;;;;;;5030979;28;20424;-82
2023/11/18 05:40:54;;;;;;;9.80;4.90;;;;;;;;;;5021224;28;20536;-81
2023/11/18 05:43:21;;;;;;;10.20;6.60;;;;;;;;;;5038985;28;20528;-81
2023/11/18 05:46:14;;;;;;;7.30;6.30;;;;;;;;;;5040756;28;20457;-82
2023/11/18 05:48:32;;;;;;;7.90;5.50;;;;;;;;;;5040123;28;20531;-82
2023/11/18 05:50:58;;;;;;;10.60;5.77;;;;;;;;;;5000553;28;20931;-82
2023/11/18 05:53:24;;;;;;;10.57;6.40;;;;;;;;;;5043405;28;20404;-81
2023/11/18 05:55:50;;;;;;;11.17;5.73;;;;;;;;;;5040617;28;20465;-81
2023/11/18 05:58:16;;;;;;;9.63;7.07;;;;;;;;;;5041964;28;20422;-81
2023/11/18 06:00:42;;;;;;;9.63;6.47;;;;;;;;;;5043140;28;20412;-81
2023/11/18 06:03:08;;;;;;;9.90;6.83;;;;;;;;;;5041652;28;20409;-81
2023/11/18 06:05:34;;;;;;;8.33;5.00;;;;;;;;;;5041372;28;20954;-81
2023/11/18 06:08:00;;;;;;;9.13;6.00;;;;;;;;;;5042878;28;20445;-81
2023/11/18 06:10:26;;;;;;;8.37;5.20;;;;;;;;;;5038661;28;20454;-81
2023/11/18 06:12:53;;;;;;;9.23;5.90;;;;;;;;;;5044934;28;20439;-81
2023/11/18 06:15:19;;;;;;;9.50;6.13;;;;;;;;;;5045415;28;20469;-80
2023/11/18 06:17:45;;;;;;;7.53;5.50;;;;;;;;;;5044814;28;20415;-81
2023/11/18 06:20:14;;;;;;;11.00;5.67;;;;;;;;;;5045971;28;20423;-81
2023/11/18 06:22:39;;;;;;;13.23;5.93;;;;;;;;;;5046801;28;20420;-81
2023/11/18 06:25:07;;;;;;;9.83;6.40;;;;;;;;;;5044776;28;20417;-81
2023/11/18 06:27:33;;;;;;;8.93;6.23;;;;;;;;;;5045845;28;20413;-81
2023/11/18 06:29:59;;;;;;;8.83;7.00;;;;;;;;;;5044041;28;20427;-81
2023/11/18 06:32:25;;;;;;;9.70;6.87;;;;;;;;;;5045627;28;20419;-81
2023/11/18 06:34:51;;;;;;;11.33;7.70;;;;;;;;;;5050773;28;20926;-81
2023/11/18 06:37:17;;;;;;;11.07;7.40;;;;;;;;;;5056109;28;20399;-81
2023/11/18 06:39:48;;;;;;;10.87;7.90;;;;;;;;;;5056089;28;20415;-81
2023/11/18 06:42:14;;;;;;;11.87;8.57;;;;;;;;;;5056018;28;20399;-81
2023/11/18 06:44:40;;;;;;;12.27;7.70;;;;;;;;;;5055969;28;20814;-81
2023/11/18 06:47:06;;;;;;;13.37;7.10;;;;;;;;;;5055952;28;20463;-81
2023/11/18 06:49:36;;;;;;;8.93;6.73;;;;;;;;;;5055597;28;20411;-80
2023/11/18 06:52:05;;;;;;;10.27;7.90;;;;;;;;;;5055778;28;20404;-82
2023/11/18 06:54:33;;;;;;;7.97;6.60;;;;;;;;;;5055637;28;20542;-82
2023/11/18 06:56:59;;;;;;;8.50;6.33;;;;;;;;;;5055709;28;20425;-82
2023/11/18 06:59:25;;;;;;;10.93;7.97;;;;;;;;;;5008755;28;20484;-81
2023/11/18 07:01:50;;;;;;;7.77;6.03;;;;;;;;;;5035712;28;20410;-81
2023/11/18 07:04:16;;;;;;;7.87;5.37;;;;;;;;;;5035359;28;20405;-81
2023/11/18 07:06:43;;;;;;;10.10;6.63;;;;;;;;;;5034387;28;20432;-80
2023/11/18 07:09:13;;;;;;;13.13;9.65;;;;;;;;;;5034467;28;20439;-80
2023/11/18 07:11:40;;;;;;;9.33;6.20;;;;;;;;;;5035579;28;20257;-80
2023/11/18 07:14:08;;;;;;;11.47;7.67;;;;;;;;;;5035447;28;20403;-80
2023/11/18 07:16:34;;;;;;;12.37;6.40;;;;;;;;;;5035376;28;20413;-80
2023/11/18 07:19:00;;;;;;;9.70;7.50;;;;;;;;;;5033820;28;20436;-80
2023/11/18 07:21:26;;;;;;;11.20;7.47;;;;;;;;;;5035394;28;20418;-80
2023/11/18 07:23:52;;;;;;;13.97;7.47;;;;;;;;;;5034195;28;20787;-80
2023/11/18 07:26:18;;;;;;;9.57;6.40;;;;;;;;;;5035343;28;20495;-80
2023/11/18 07:28:45;;;;;;;11.17;7.27;;;;;;;;;;5035238;28;20413;-82
2023/11/18 07:31:11;;;;;;;9.27;7.10;;;;;;;;;;5028740;28;20486;-82
2023/11/18 07:33:37;;;;;;;9.83;7.20;;;;;;;;;;5037856;28;20784;-81
2023/11/18 07:36:05;;;;;;;10.27;6.23;;;;;;;;;;5043937;28;20507;-81
2023/11/18 07:38:33;;;;;;;10.87;7.70;;;;;;;;;;5043685;28;20890;-81
2023/11/18 07:40:58;;;;;;;10.53;7.47;;;;;;;;;;5041928;28;20433;-80
2023/11/18 07:43:24;;;;;;;11.07;6.73;;;;;;;;;;5044902;28;21057;-80
2023/11/18 07:45:53;;;;;;;11.50;6.27;;;;;;;;;;5043674;28;20441;-81
2023/11/18 07:48:20;;;;;;;9.13;5.73;;;;;;;;;;5040305;28;20422;-81
2023/11/18 07:50:47;;;;;;;12.23;6.77;;;;;;;;;;5044119;28;20560;-81
2023/11/18 07:53:13;;;;;;;9.83;5.93;;;;;;;;;;5045244;28;20417;-81
2023/11/18 07:55:41;;;;;;;10.10;5.53;;;;;;;;;;5055896;28;20528;-81
2023/11/18 07:58:11;;;;;;;9.43;5.67;;;;;;;;;;5043788;28;20406;-81
2023/11/18 08:00:40;;;;;;;9.63;5.77;;;;;;;;;;5044989;28;20419;-81
2023/11/18 08:03:14;;;;;;;8.53;6.00;;;;;;;;;;5044005;28;20513;-81
2023/11/18 08:05:40;;;;;;;10.30;6.50;;;;;;;;;;5040617;28;20415;-81
2023/11/18 08:08:07;;;;;;;12.13;7.43;;;;;;;;;;5043819;28;20814;-81
2023/11/18 08:10:33;;;;;;;9.20;6.93;;;;;;;;;;5004432;28;20446;-81
2023/11/18 08:12:59;;;;;;;8.73;6.13;;;;;;;;;;5040594;28;20411;-81
2023/11/18 08:15:29;;;;;;;8.50;6.03;;;;;;;;;;5043781;28;20550;-81
2023/11/18 08:17:55;;;;;;;11.20;6.07;;;;;;;;;;5044426;28;20809;-81
2023/11/18 08:20:24;;;;;;;8.17;5.60;;;;;;;;;;5042750;28;20419;-79
2023/11/18 08:22:50;;;;;;;9.53;5.10;;;;;;;;;;5042587;28;20496;-81
2023/11/18 08:25:17;;;;;;;9.07;4.87;;;;;;;;;;5044612;28;20913;-82
2023/11/18 08:27:45;;;;;;;7.07;5.00;;;;;;;;;;5041850;28;20412;-81
2023/11/18 08:30:12;;;;;;;8.00;4.70;;;;;;;;;;5042462;28;20481;-80
2023/11/18 08:32:38;;;;;;;6.57;5.10;;;;;;;;;;5039791;28;20416;-81
2023/11/18 08:35:09;;;;;;;7.10;4.77;;;;;;;;;;5042651;28;20485;-82
2023/11/18 08:37:35;;;;;;;6.87;4.93;;;;;;;;;;5044208;28;20414;-81
2023/11/18 08:40:02;;;;;;;8.30;5.50;;;;;;;;;;5057994;28;20794;-82
2023/11/18 08:42:29;;;;;;;9.50;5.23;;;;;;;;;;5042915;28;20490;-81
2023/11/18 08:44:55;;;;;;;8.43;4.90;;;;;;;;;;5044185;28;20918;-81
2023/11/18 08:47:21;;;;;;;10.40;5.73;;;;;;;;;;5042661;28;20487;-82
2023/11/18 08:49:47;;;;;;;7.20;4.40;;;;;;;;;;5043147;28;20501;-82
2023/11/18 08:52:13;;;;;;;9.87;5.37;;;;;;;;;;5043648;28;21865;-81
2023/11/18 08:55:12;;;;;;;9.50;5.63;;;;;;;;;;5039435;28;20477;-81
2023/11/18 08:57:25;;;;;;;7.77;5.80;;;;;;;;;;5041167;28;20412;-80
2023/11/18 08:59:52;;;;;;;8.63;6.10;;;;;;;;;;5042271;28;20434;-79
2023/11/18 09:02:23;;;;;;;10.07;6.60;;;;;;;;;;5043996;28;20852;-82
2023/11/18 09:04:49;;;;;;;8.23;5.20;;;;;;;;;;5042969;28;20412;-83
2023/11/18 09:07:15;;;;;;;6.43;4.87;;;;;;;;;;5041969;28;20407;-83
2023/11/18 09:09:41;;;;;;;6.60;4.93;;;;;;;;;;5043494;28;20441;-83
2023/11/18 09:12:08;;;;;;;5.10;3.80;;;;;;;;;;5042991;28;20413;-83
2023/11/18 09:14:34;;;;;;;7.03;4.43;;;;;;;;;;5041519;28;20210;-83
2023/11/18 09:17:01;;;;;;;5.50;3.30;;;;;;;;;;5043515;28;20413;-82
2023/11/18 09:19:27;;;;;;;6.20;4.10;;;;;;;;;;5038816;28;20407;-82
2023/11/18 09:21:54;;;;;;;5.60;4.07;;;;;;;;;;5043069;28;20422;-82
2023/11/18 09:24:22;;;;;;;8.07;3.20;;;;;;;;;;5038822;28;20660;-82
2023/11/18 09:26:49;;;;;;;8.50;5.27;;;;;;;;;;5041880;28;20774;-83
2023/11/18 09:29:17;;;;;;;7.10;4.37;;;;;;;;;;5043206;28;20807;-82
2023/11/18 09:31:47;;;;;;;6.03;4.00;;;;;;;;;;5041630;28;20450;-82
2023/11/18 09:34:15;;;;;;;6.63;4.00;;;;;;;;;;5040847;28;20465;-82
2023/11/18 09:36:43;;;;;;;4.80;3.63;;;;;;;;;;5042748;28;20779;-81
2023/11/18 09:39:10;;;;;;;6.37;4.37;;;;;;;;;;5042475;28;20402;-82
2023/11/18 09:41:41;;;;;;;5.87;3.80;;;;;;;;;;5039319;28;20437;-82
2023/11/18 09:44:07;;;;;;;7.07;4.23;;;;;;;;;;5041952;28;20431;-82
2023/11/18 09:46:40;;;;;;;8.40;5.03;;;;;;;;;;5043666;28;20180;-82
2023/11/18 09:49:14;;;;;;;6.37;4.30;;;;;;;;;;5045818;28;20902;-82
2023/11/18 09:51:41;;;;;;;5.73;3.77;;;;;;;;;;5042882;28;20409;-82
2023/11/18 09:54:18;;;;;;;6.90;4.43;;;;;;;;;;5005463;28;20432;-81
2023/11/18 09:57:08;;;;;;;6.70;3.70;;;;;;;;;;5027464;28;20464;-81
2023/11/18 09:59:44;;;;;;;7.37;4.33;;;;;;;;;;5036451;28;20409;-81
2023/11/18 10:02:11;;;;;;;7.77;4.10;;;;;;;;;;5035257;28;20515;-81
2023/11/18 10:04:39;;;;;;;6.33;4.97;;;;;;;;;;5036147;28;20407;-81
2023/11/18 10:07:07;;;;;;;6.70;3.60;;;;;;;;;;5036346;28;20442;-81
2023/11/18 10:09:39;;;;;;;7.90;4.13;;;;;;;;;;5028830;28;20427;-81
2023/11/18 10:12:06;;;;;;;5.53;3.40;;;;;;;;;;5036017;28;20508;-82
2023/11/18 10:14:33;;;;;;;6.13;3.07;;;;;;;;;;5036283;28;20556;-81
2023/11/18 10:17:00;;;;;;;5.87;3.50;;;;;;;;;;5036529;28;20419;-81
2023/11/18 10:19:26;;;;;;;5.77;4.27;;;;;;;;;;5036155;28;20413;-82
2023/11/18 10:21:52;;;;;;;5.40;4.00;;;;;;;;;;5036433;28;20415;-81
2023/11/18 10:24:21;;;;;;;4.90;3.17;;;;;;;;;;5036403;28;20442;-82
2023/11/18 10:26:56;;;;;;;5.80;3.03;;;;;;;;;;5036445;28;20418;-82
2023/11/18 10:29:23;;;;;;;4.83;3.40;;;;;;;;;;5036069;28;20952;-82
2023/11/18 10:31:49;;;;;;;5.80;3.83;;;;;;;;;;5035664;28;20494;-81
2023/11/18 10:34:15;;;;;;;7.20;3.60;;;;;;;;;;5034296;28;20408;-81
2023/11/18 10:36:43;;;;;;;4.77;3.43;;;;;;;;;;5036230;28;20422;-82
2023/11/18 10:39:13;;;;;;;4.53;1.93;;;;;;;;;;5036375;28;20414;-81
2023/11/18 10:41:43;;;;;;;4.60;2.67;;;;;;;;;;5034657;28;20826;-81
2023/11/18 10:44:15;;;;;;;6.93;2.47;;;;;;;;;;5016252;28;20433;-82
2023/11/18 10:46:41;;;;;;;4.90;2.43;;;;;;;;;;5015482;28;20518;-82
2023/11/18 10:49:09;;;;;;;5.30;2.87;;;;;;;;;;5027110;28;20929;-81
2023/11/18 10:51:38;;;;;;;5.10;2.63;;;;;;;;;;5035890;28;20416;-81
2023/11/18 10:54:13;;;;;;;6.20;3.63;;;;;;;;;;5004071;28;20834;-80
2023/11/18 10:56:46;;;;;;;4.30;2.33;;;;;;;;;;5049290;28;20480;-81
2023/11/18 10:59:16;;;;;;;4.60;3.07;;;;;;;;;;5029237;28;20430;-80
2023/11/18 11:01:42;;;;;;;4.53;2.97;;;;;;;;;;5035744;28;20453;-81
2023/11/18 11:04:11;;;;;;;5.33;2.60;;;;;;;;;;5029577;28;20429;-81
2023/11/18 11:06:42;;;;;;;4.27;3.40;;;;;;;;;;5015902;28;20412;-79
2023/11/18 11:09:17;;;;;;;5.00;2.30;;;;;;;;;;5015900;28;20423;-81
2023/11/18 11:11:46;;;;;;;2.80;1.73;;;;;;;;;;5025974;28;20771;-82
2023/11/18 11:14:17;;;;;;;4.27;2.20;;;;;;;;;;5019531;28;20429;-80
2023/11/18 11:16:45;;;;;;;4.37;2.20;;;;;;;;;;5022969;28;20516;-81
2023/11/18 11:19:44;;;;;;;4.13;1.97;;;;;;;;;;5014751;28;20411;-80
2023/11/18 11:22:15;;;;;;;4.20;2.13;;;;;;;;;;5014106;28;20446;-83
2023/11/18 11:24:59;;;;;;;4.03;1.70;;;;;;;;;;5015194;28;20930;-81
2023/11/18 11:27:39;;;;;;;4.33;2.50;;;;;;;;;;5028804;28;20421;-84
2023/11/18 11:30:21;;;;;;;4.23;2.80;;;;;;;;;;5034334;28;20419;-83
2023/11/18 11:32:51;;;;;;;3.87;2.33;;;;;;;;;;5034509;28;20459;-80
2023/11/18 11:35:24;;;;;;;3.80;1.80;;;;;;;;;;5034602;28;21025;-79
2023/11/18 11:37:50;;;;;;;2.50;1.37;;;;;;;;;;5034424;28;20450;-80
2023/11/18 11:40:21;;;;;;;3.20;2.00;;;;;;;;;;5034530;28;20918;-80
2023/11/18 11:42:49;;;;;;;2.37;1.97;;;;;;;;;;5034134;28;20398;-80
2023/11/18 11:45:19;;;;;;;2.73;1.20;;;;;;;;;;5034396;28;20417;-80
2023/11/18 11:47:49;;;;;;;3.70;1.97;;;;;;;;;;5033566;28;20748;-80
2023/11/18 11:50:21;;;;;;;3.30;1.60;;;;;;;;;;5034069;28;20427;-80
2023/11/18 11:52:51;;;;;;;3.23;1.07;;;;;;;;;;5034142;28;20707;-80
2023/11/18 11:55:23;;;;;;;2.50;1.63;;;;;;;;;;5004805;28;21017;-81
2023/11/18 11:57:58;;;;;;;2.50;1.03;;;;;;;;;;5054318;28;20442;-81
2023/11/18 12:00:25;;;;;;;3.00;0.70;;;;;;;;;;5054191;28;20417;-80
2023/11/18 12:02:56;;;;;;;2.73;1.43;;;;;;;;;;5044785;28;20407;-80
2023/11/18 12:05:26;;;;;;;2.10;1.13;;;;;;;;;;5033010;28;20451;-80
2023/11/18 12:07:55;;;;;;;1.77;1.03;;;;;;;;;;5034089;28;20467;-81
2023/11/18 12:10:21;;;;;;;2.13;1.20;;;;;;;;;;5031565;28;20454;-80
2023/11/18 12:12:47;;;;;;;2.40;1.43;;;;;;;;;;5034109;28;20462;-80
2023/11/18 12:15:17;;;;;;;3.37;1.60;;;;;;;;;;5028257;28;20480;-79
2023/11/18 12:17:57;;;;;;;4.73;1.33;;;;;;;;;;5033527;28;20462;-81
2023/11/18 12:20:47;;;;;;;3.93;1.50;;;;;;;;;;5032463;28;20422;-81
2023/11/18 12:23:17;;;;;;;2.73;0.87;;;;;;;;;;5042669;28;20411;-80
2023/11/18 12:25:49;;;;;;;2.97;0.83;;;;;;;;;;5053812;28;20494;-80
2023/11/18 12:28:16;;;;;;;4.07;1.50;;;;;;;;;;5044539;28;21025;-81
2023/11/18 12:31:27;;;;;;;2.60;2.00;;;;;;;;;;5033548;28;20485;-80
2023/11/18 12:33:53;;;;;;;3.30;2.17;;;;;;;;;;5032842;28;20414;-80
2023/11/18 12:36:19;;;;;;;3.60;1.70;;;;;;;;;;5033331;28;20562;-80
2023/11/18 12:39:03;;;;;;;4.10;2.40;;;;;;;;;;5033560;28;20931;-80
2023/11/18 12:41:39;;;;;;;6.47;2.77;;;;;;;;;;5033594;28;20450;-81
2023/11/18 12:44:24;;;;;;;3.80;2.37;;;;;;;;;;5033477;28;20409;-80
2023/11/18 12:47:14;;;;;;;3.80;1.40;;;;;;;;;;5033417;28;20927;-80
2023/11/18 12:49:41;;;;;;;6.70;3.30;;;;;;;;;;5033163;28;20503;-80
2023/11/18 12:52:08;;;;;;;4.53;2.27;;;;;;;;;;5033212;28;20426;-81
2023/11/18 12:54:37;;;;;;;3.80;2.27;;;;;;;;;;5015060;28;20477;-79
2023/11/18 12:57:06;;;;;;;4.17;2.60;;;;;;;;;;5035692;28;20417;-79
2023/11/18 12:59:32;;;;;;;5.10;2.60;;;;;;;;;;5038389;28;20427;-80
2023/11/18 13:01:58;;;;;;;4.83;2.50;;;;;;;;;;5033313;28;20419;-80
2023/11/18 13:04:24;;;;;;;2.60;1.73;;;;;;;;;;5032789;28;20415;-80
2023/11/18 13:06:54;;;;;;;2.60;1.80;;;;;;;;;;5033428;28;20419;-79
2023/11/18 13:09:30;;;;;;;2.97;1.53;;;;;;;;;;5033159;28;20411;-79
2023/11/18 13:11:56;;;;;;;5.37;1.63;;;;;;;;;;5032071;28;20417;-80
2023/11/18 13:14:24;;;;;;;4.40;1.90;;;;;;;;;;5032790;28;20461;-79
2023/11/18 13:16:50;;;;;;;2.97;1.77;;;;;;;;;;5032892;28;20427;-79
2023/11/18 13:19:28;;;;;;;3.30;1.40;;;;;;;;;;5032402;28;20826;-79
2023/11/18 13:22:00;;;;;;;4.13;2.17;;;;;;;;;;5031935;28;20451;-79
2023/11/18 13:24:29;;;;;;;2.63;1.80;;;;;;;;;;5031606;28;21009;-79
2023/11/18 13:26:55;;;;;;;3.73;2.20;;;;;;;;;;5032759;28;20416;-80
2023/11/18 13:29:22;;;;;;;4.80;2.70;;;;;;;;;;5032855;28;20421;-80
2023/11/18 13:31:51;;;;;;;4.70;2.60;;;;;;;;;;5032588;28;20998;-79
2023/11/18 13:34:20;;;;;;;3.00;1.87;;;;;;;;;;5031210;28;20824;-79
2023/11/18 13:36:50;;;;;;;4.23;2.50;;;;;;;;;;5028723;28;20431;-80
2023/11/18 13:39:18;;;;;;;3.90;2.10;;;;;;;;;;5032332;28;20426;-79
2023/11/18 13:41:44;;;;;;;3.00;1.80;;;;;;;;;;5032704;28;21089;-80
2023/11/18 13:44:12;;;;;;;4.40;1.80;;;;;;;;;;5032638;28;20419;-80
2023/11/18 13:46:42;;;;;;;4.50;2.73;;;;;;;;;;5032542;28;20454;-79
2023/11/18 13:49:08;;;;;;;2.70;1.07;;;;;;;;;;5031987;28;20776;-80
2023/11/18 13:51:36;;;;;;;4.67;2.10;;;;;;;;;;5032553;28;20416;-80
2023/11/18 13:54:02;;;;;;;7.13;3.47;;;;;;;;;;5032358;28;20920;-79
2023/11/18 13:56:28;;;;;;;5.53;2.57;;;;;;;;;;5032280;28;20423;-80
2023/11/18 13:58:54;;;;;;;4.23;2.33;;;;;;;;;;5032419;28;20422;-80
2023/11/18 14:01:21;;;;;;;4.50;2.70;;;;;;;;;;5032245;28;20424;-79
2023/11/18 14:03:47;;;;;;;2.70;2.00;;;;;;;;;;5032052;28;20828;-79
2023/11/18 14:06:17;;;;;;;3.80;2.20;;;;;;;;;;5032566;28;20872;-79
2023/11/18 14:08:43;;;;;;;4.90;1.60;;;;;;;;;;5030949;28;20474;-79
2023/11/18 14:11:09;;;;;;;3.13;2.03;;;;;;;;;;5032261;28;20492;-79
2023/11/18 14:13:35;;;;;;;4.07;2.00;;;;;;;;;;5032348;28;20506;-81
2023/11/18 14:16:02;;;;;;;4.57;2.57;;;;;;;;;;5032276;28;20471;-80
2023/11/18 14:18:28;;;;;;;3.20;1.90;;;;;;;;;;5032040;28;20471;-81
2023/11/18 14:20:54;;;;;;;6.30;2.90;;;;;;;;;;5032228;28;20454;-80
2023/11/18 14:23:21;;;;;;;12.47;2.90;;;;;;;;;;5032300;28;20445;-80
2023/11/18 14:25:47;;;;;;;7.27;2.73;;;;;;;;;;5032097;28;20523;-81
2023/11/18 14:28:14;;;;;;;2.57;2.13;;;;;;;;;;5032756;28;20517;-81
2023/11/18 14:30:43;;;;;;;3.63;1.67;;;;;;;;;;5032246;28;20529;-81
2023/11/18 14:33:08;;;;;;;4.97;2.47;;;;;;;;;;5038135;28;20433;-80
2023/11/18 14:35:35;;;;;;;4.00;2.00;;;;;;;;;;5035229;28;20475;-79
2023/11/18 14:38:01;;;;;;;3.23;1.50;;;;;;;;;;5035862;28;20425;-81
2023/11/18 14:40:27;;;;;;;3.23;1.17;;;;;;;;;;5035850;28;20778;-81
2023/11/18 14:42:54;;;;;;;3.80;1.27;;;;;;;;;;5035718;28;20900;-81
2023/11/18 14:45:20;;;;;;;4.47;1.67;;;;;;;;;;5035676;28;20771;-81
2023/11/18 14:47:47;;;;;;;4.33;1.90;;;;;;;;;;5035569;28;20415;-81